createdAt,value
2023-01-11T00:00:49.776Z,8.53
2023-01-11T00:03:17.906Z,8.59
2023-01-11T00:05:49.703Z,8.77
2023-01-11T00:08:16.551Z,8.46
2023-01-11T00:10:43.616Z,8.58
2023-01-11T00:13:12.301Z,8.63
2023-01-11T00:15:40.078Z,8.52
2023-01-11T00:18:07.376Z,8.54
2023-01-11T00:20:38.583Z,8.67
2023-01-11T00:23:12.001Z,8.67
2023-01-11T00:25:40.566Z,8.54
2023-01-11T00:28:11.256Z,8.59
2023-01-11T00:30:41.926Z,8.69
2023-01-11T00:33:12.383Z,8.70
2023-01-11T00:35:46.786Z,8.57
2023-01-11T00:38:15.905Z,8.76
2023-01-11T00:40:46.456Z,8.71
2023-01-11T00:43:14.256Z,8.78
2023-01-11T00:45:41.653Z,8.66
2023-01-11T00:48:10.365Z,8.96
2023-01-11T00:50:39.177Z,8.96
2023-01-11T00:53:09.395Z,8.95
2023-01-11T00:55:39.035Z,9.05
2023-01-11T00:58:14.879Z,9.07
2023-01-11T01:00:43.759Z,9.14
2023-01-11T01:03:17.700Z,9.13
2023-01-11T01:05:44.617Z,9.07
2023-01-11T01:08:26.124Z,9.45
2023-01-11T01:10:55.388Z,9.39
2023-01-11T01:13:27.734Z,9.49
2023-01-11T01:15:57.686Z,9.49
2023-01-11T01:18:27.124Z,9.46
2023-01-11T01:20:55.258Z,9.26
2023-01-11T01:23:24.213Z,9.39
2023-01-11T01:25:54.750Z,9.50
2023-01-11T01:28:24.985Z,9.41
2023-01-11T01:30:51.848Z,9.50
2023-01-11T01:33:19.053Z,9.34
2023-01-11T01:35:47.754Z,9.40
2023-01-11T01:38:16.466Z,9.53
2023-01-11T01:40:50.682Z,9.38
2023-01-11T01:43:18.510Z,9.36
2023-01-11T01:45:47.839Z,9.39
2023-01-11T01:48:19.295Z,9.16
2023-01-11T01:50:49.445Z,9.42
2023-01-11T01:53:20.824Z,9.32
2023-01-11T01:55:55.085Z,9.51
2023-01-11T01:58:27.574Z,9.60
2023-01-11T02:00:54.372Z,9.30
2023-01-11T02:03:25.422Z,9.56
2023-01-11T02:05:53.928Z,9.65
2023-01-11T02:08:29.479Z,9.64
2023-01-11T02:10:59.713Z,9.34
2023-01-11T02:13:31.781Z,9.43
2023-01-11T02:15:59.562Z,9.52
2023-01-11T02:18:26.658Z,9.55
2023-01-11T02:21:16.544Z,9.49
2023-01-11T02:24:28.733Z,9.49
2023-01-11T02:27:24.449Z,9.42
2023-01-11T02:30:04.052Z,9.37
2023-01-11T02:32:40.033Z,9.24
2023-01-11T02:35:20.540Z,9.34
2023-01-11T02:38:10.376Z,9.39
2023-01-11T02:40:50.539Z,9.33
2023-01-11T02:43:24.668Z,9.21
2023-01-11T02:46:12.723Z,9.50
2023-01-11T02:49:02.799Z,9.44
2023-01-11T02:54:29.996Z,9.53
2023-01-11T02:57:04.419Z,9.47
2023-01-11T02:59:42.768Z,9.57
2023-01-11T03:02:19.155Z,9.67
2023-01-11T03:04:46.363Z,9.61
2023-01-11T03:07:30.356Z,9.52
2023-01-11T03:10:10.277Z,9.48
2023-01-11T03:12:50.405Z,9.60
2023-01-11T03:15:43.079Z,9.88
2023-01-11T03:18:40.611Z,9.68
2023-01-11T03:21:21.349Z,9.68
2023-01-11T03:24:09.908Z,9.69
2023-01-11T03:26:49.279Z,9.73
2023-01-11T03:29:35.061Z,9.70
2023-01-11T03:32:39.153Z,10.02
2023-01-11T03:35:37.833Z,9.96
2023-01-11T03:38:21.422Z,10.01
2023-01-11T03:40:53.936Z,10.03
2023-01-11T03:43:31.168Z,10.00
2023-01-11T03:46:05.594Z,10.24
2023-01-11T03:48:46.044Z,10.23
2023-01-11T03:51:19.124Z,10.28
2023-01-11T03:53:52.201Z,10.26
2023-01-11T03:56:32.529Z,10.23
2023-01-11T03:59:02.911Z,10.14
2023-01-11T04:01:58.812Z,10.25
2023-01-11T04:07:30.004Z,10.28
2023-01-11T04:09:58.545Z,10.38
2023-01-11T04:12:28.578Z,10.42
2023-01-11T04:15:24.437Z,10.39
2023-01-11T04:17:54.263Z,10.37
2023-01-11T04:20:21.979Z,10.40
2023-01-11T04:22:48.831Z,10.61
2023-01-11T04:25:17.549Z,10.51
2023-01-11T04:27:44.961Z,10.59
2023-01-11T04:30:15.066Z,10.59
2023-01-11T04:32:43.605Z,10.54
2023-01-11T04:35:13.517Z,10.49
2023-01-11T04:37:52.533Z,10.42
2023-01-11T04:40:27.619Z,10.50
2023-01-11T04:42:54.633Z,10.51
2023-01-11T04:45:21.714Z,10.59
2023-01-11T04:48:31.924Z,10.34
2023-01-11T04:51:00.354Z,10.67
2023-01-11T04:53:30.609Z,10.73
2023-01-11T04:56:11.721Z,10.62
2023-01-11T04:58:40.142Z,10.88
2023-01-11T05:01:44.093Z,10.82
2023-01-11T05:04:13.488Z,10.92
2023-01-11T05:06:48.263Z,10.87
2023-01-11T05:09:36.235Z,10.65
2023-01-11T05:12:08.925Z,11.05
2023-01-11T05:14:46.461Z,10.79
2023-01-11T05:17:16.455Z,10.93
2023-01-11T05:19:43.306Z,11.03
2023-01-11T05:22:10.260Z,11.12
2023-01-11T05:24:36.962Z,11.16
2023-01-11T05:27:04.454Z,11.15
2023-01-11T05:29:33.082Z,11.20
2023-01-11T05:31:59.900Z,11.26
2023-01-11T05:34:27.271Z,11.21
2023-01-11T05:36:54.394Z,10.94
2023-01-11T05:39:21.115Z,10.96
2023-01-11T05:41:50.886Z,10.91
2023-01-11T05:44:19.212Z,11.10
2023-01-11T05:46:51.716Z,11.13
2023-01-11T05:49:18.826Z,11.27
2023-01-11T05:52:17.321Z,11.15
2023-01-11T05:54:44.910Z,11.22
2023-01-11T05:57:22.197Z,11.30
2023-01-11T05:59:52.612Z,11.37
2023-01-11T06:02:21.625Z,11.46
2023-01-11T06:04:48.672Z,11.51
2023-01-11T06:07:15.562Z,11.64
2023-01-11T06:09:57.600Z,11.69
2023-01-11T06:12:29.424Z,11.63
2023-01-11T06:14:56.052Z,11.41
2023-01-11T06:17:25.550Z,11.57
2023-01-11T06:19:52.460Z,11.69
2023-01-11T06:25:13.161Z,11.60
2023-01-11T06:37:51.293Z,11.95
2023-01-11T06:40:19.026Z,11.93
2023-01-11T06:42:54.910Z,11.66
2023-01-11T06:45:26.135Z,11.77
2023-01-11T06:47:57.293Z,11.84
2023-01-11T06:50:51.397Z,11.85
2023-01-11T06:53:23.504Z,11.90
2023-01-11T06:55:53.844Z,11.80
2023-01-11T06:58:21.601Z,11.78
2023-01-11T07:03:51.665Z,11.78
2023-01-11T07:07:15.092Z,11.73
2023-01-11T07:09:22.184Z,11.67
2023-01-11T07:11:50.053Z,12.00
2023-01-11T07:14:17.136Z,11.60
2023-01-11T07:17:04.024Z,11.84
2023-01-11T07:19:40.932Z,11.88
2023-01-11T07:22:14.402Z,11.98
2023-01-11T07:24:48.509Z,12.12
2023-01-11T07:27:25.195Z,12.23
2023-01-11T07:29:54.966Z,12.13
2023-01-11T07:32:25.626Z,11.86
2023-01-11T07:35:00.431Z,11.85
2023-01-11T07:37:30.242Z,12.09
2023-01-11T07:40:04.683Z,12.17
2023-01-11T07:42:37.082Z,12.26
2023-01-11T07:45:10.959Z,12.38
2023-01-11T07:48:15.366Z,12.31
2023-01-11T07:50:45.368Z,12.49
2023-01-11T07:56:12.391Z,12.64
2023-01-11T07:58:54.247Z,12.55
2023-01-11T08:04:46.139Z,12.81
2023-01-11T08:07:13.909Z,12.73
2023-01-11T08:10:05.571Z,12.82
2023-01-11T08:12:34.225Z,12.73
2023-01-11T08:15:23.520Z,12.81
2023-01-11T08:17:53.633Z,12.93
2023-01-11T08:20:23.061Z,12.96
2023-01-11T08:22:51.373Z,12.91
2023-01-11T08:25:18.196Z,13.06
2023-01-11T08:27:53.628Z,13.13
2023-01-11T09:04:23.207Z,12.65
2023-01-11T09:06:51.220Z,12.78
2023-01-11T09:09:19.893Z,12.86
2023-01-11T09:11:46.718Z,12.90
2023-01-11T09:17:02.472Z,12.64
2023-01-11T09:19:43.425Z,12.51
2023-01-11T09:22:10.084Z,12.53
2023-01-11T09:24:38.785Z,12.52
2023-01-11T09:27:05.660Z,12.40
2023-01-11T09:29:33.894Z,12.43
2023-01-11T09:32:04.568Z,12.44
2023-01-11T09:34:34.698Z,12.59
2023-01-11T09:37:01.450Z,12.58
2023-01-11T09:39:30.854Z,12.59
2023-01-11T09:42:14.367Z,12.41
2023-01-11T09:44:49.493Z,12.63
2023-01-11T09:47:24.501Z,12.31
2023-01-11T09:49:56.505Z,12.41
2023-01-11T09:52:27.119Z,12.46
2023-01-11T09:54:53.948Z,12.46
2023-01-11T09:57:51.159Z,12.58
2023-01-11T10:00:36.473Z,12.53
2023-01-11T10:03:36.905Z,12.37
2023-01-11T10:06:17.804Z,12.40
2023-01-11T10:18:26.401Z,12.63
2023-01-11T10:18:32.462Z,12.64
2023-01-11T10:20:42.547Z,12.84
2023-01-11T10:23:30.591Z,12.84
2023-01-11T10:25:57.788Z,12.82
2023-01-11T10:28:30.829Z,13.05
2023-01-11T10:30:58.169Z,13.02
2023-01-11T10:33:30.695Z,13.12
2023-01-11T10:36:03.591Z,13.09
2023-01-11T10:38:48.464Z,12.96
2023-01-11T10:41:20.310Z,12.77
2023-01-11T10:43:56.023Z,12.79
2023-01-11T10:46:26.582Z,12.57
2023-01-11T10:49:08.110Z,12.74
2023-01-11T10:51:42.017Z,12.75
2023-01-11T10:54:13.299Z,13.07
2023-01-11T10:57:02.745Z,13.27
2023-01-11T10:59:48.744Z,13.68
2023-01-11T11:02:26.857Z,13.76
2023-01-11T11:05:09.660Z,13.85
2023-01-11T11:07:44.345Z,13.86
2023-01-11T11:10:18.162Z,13.84
2023-01-11T11:12:54.972Z,13.73
2023-01-11T11:15:27.350Z,13.36
2023-01-11T11:17:54.460Z,13.39
2023-01-11T11:20:23.859Z,13.59
2023-01-11T11:22:51.927Z,13.69
2023-01-11T11:25:25.038Z,13.73
2023-01-11T11:27:55.701Z,13.77
2023-01-11T11:30:28.510Z,13.37
2023-01-11T11:32:59.670Z,13.38
2023-01-11T11:35:44.617Z,13.17
2023-01-11T11:38:22.456Z,13.51
2023-01-11T11:41:03.642Z,13.27
2023-01-11T11:43:31.483Z,13.21
2023-01-11T11:45:59.759Z,13.07
2023-01-11T11:48:28.526Z,13.40
2023-01-11T11:50:57.623Z,13.70
2023-01-11T11:53:36.725Z,13.67
2023-01-11T11:56:16.674Z,13.37
2023-01-11T11:58:46.503Z,13.30
2023-01-11T12:01:26.464Z,13.50
2023-01-11T12:03:56.359Z,13.45
2023-01-11T12:06:31.182Z,13.73
2023-01-11T12:09:02.040Z,13.53
2023-01-11T12:11:32.957Z,13.61
2023-01-11T12:14:15.534Z,13.81
2023-01-11T12:16:44.279Z,14.12
2023-01-11T12:19:26.302Z,14.18
2023-01-11T12:22:10.408Z,14.17
2023-01-11T12:24:45.031Z,14.13
2023-01-11T12:27:37.797Z,14.21
2023-01-11T12:30:20.951Z,14.08
2023-01-11T12:33:03.458Z,13.96
2023-01-11T12:35:41.324Z,13.75
2023-01-11T12:38:20.806Z,13.68
2023-01-11T12:41:01.730Z,13.10
2023-01-11T12:43:48.234Z,12.82
2023-01-11T12:46:28.891Z,12.69
2023-01-11T12:49:11.395Z,12.56
2023-01-11T12:51:53.700Z,12.16
2023-01-11T12:54:38.815Z,12.12
2023-01-11T12:57:18.338Z,12.16
2023-01-11T13:00:15.957Z,11.83
2023-01-11T13:03:00.197Z,11.75
2023-01-11T13:05:38.425Z,11.84
2023-01-11T13:08:19.214Z,11.86
2023-01-11T13:10:59.016Z,11.95
2023-01-11T13:13:34.006Z,11.75
2023-01-11T13:16:09.173Z,11.87
2023-01-11T13:18:43.658Z,11.97
2023-01-11T13:21:24.661Z,12.21
2023-01-11T13:23:58.092Z,12.41
2023-01-11T13:26:33.055Z,12.48
2023-01-11T13:29:04.249Z,12.43
2023-01-11T13:31:44.346Z,12.55
2023-01-11T13:34:26.633Z,12.31
2023-01-11T13:37:00.199Z,12.42
2023-01-11T13:39:39.229Z,12.56
2023-01-11T13:42:18.188Z,12.47
2023-01-11T13:44:49.183Z,12.50
2023-01-11T13:47:21.383Z,12.52
2023-01-11T13:49:53.647Z,12.96
2023-01-11T13:52:27.625Z,12.79
2023-01-11T13:55:00.917Z,13.11
2023-01-11T13:57:35.021Z,12.88
2023-01-11T14:00:15.341Z,12.89
2023-01-11T14:02:48.200Z,12.85
2023-01-11T14:05:17.268Z,13.09
2023-01-11T14:07:57.333Z,13.17
2023-01-11T14:10:38.509Z,12.85
2023-01-11T14:13:26.902Z,12.94
2023-01-11T14:16:00.111Z,12.52
2023-01-11T14:18:38.164Z,12.57
2023-01-11T14:21:18.282Z,12.24
2023-01-11T14:23:49.249Z,12.22
2023-01-11T14:26:34.958Z,12.12
2023-01-11T14:29:16.767Z,12.13
2023-01-11T14:32:13.544Z,12.13
2023-01-11T14:35:18.671Z,12.22
2023-01-11T14:38:21.284Z,12.46
2023-01-11T14:41:01.351Z,12.41
2023-01-11T14:43:44.964Z,12.66
2023-01-11T14:46:30.531Z,12.94
2023-01-11T14:49:06.729Z,12.87
2023-01-11T14:51:53.008Z,12.65
2023-01-11T14:54:25.925Z,12.61
2023-01-11T14:56:56.030Z,12.53
2023-01-11T14:59:36.701Z,12.54
2023-01-11T15:02:25.563Z,12.58
2023-01-11T15:05:30.299Z,12.07
2023-01-11T15:08:23.086Z,12.11
2023-01-11T15:10:55.546Z,12.04
2023-01-11T15:13:25.617Z,12.00
2023-01-11T15:16:05.152Z,12.08
2023-01-11T15:18:32.339Z,12.08
2023-01-11T15:21:05.011Z,11.69
2023-01-11T15:23:35.514Z,11.85
2023-01-11T15:26:04.656Z,11.92
2023-01-11T15:28:40.748Z,11.77
2023-01-11T15:31:27.415Z,11.98
2023-01-11T15:33:55.124Z,11.67
2023-01-11T15:36:23.968Z,11.42
2023-01-11T15:38:57.307Z,11.35
2023-01-11T15:41:41.419Z,11.19
2023-01-11T15:44:29.048Z,11.19
2023-01-11T15:47:16.118Z,10.91
2023-01-11T15:50:13.027Z,10.99
2023-01-11T15:53:20.244Z,10.82
2023-01-11T15:56:22.928Z,10.80
2023-01-11T15:59:20.926Z,10.91
2023-01-11T16:02:18.817Z,11.08
2023-01-11T16:04:49.624Z,10.94
2023-01-11T16:07:25.376Z,11.14
2023-01-11T16:10:29.474Z,11.05
2023-01-11T16:13:09.044Z,10.78
2023-01-11T16:15:49.649Z,11.00
2023-01-11T16:18:22.079Z,10.91
2023-01-11T16:20:58.802Z,10.94
2023-01-11T16:23:25.828Z,10.88
2023-01-11T16:26:00.174Z,10.85
2023-01-11T16:28:28.046Z,11.00
2023-01-11T16:30:57.853Z,10.94
2023-01-11T16:33:26.783Z,11.08
2023-01-11T16:36:04.739Z,10.97
2023-01-11T16:38:34.500Z,10.93
2023-01-11T16:41:01.432Z,11.13
2023-01-11T16:43:31.451Z,11.06
2023-01-11T16:45:59.566Z,11.05
2023-01-11T16:48:28.076Z,11.24
2023-01-11T16:51:01.002Z,11.09
2023-01-11T16:53:29.444Z,10.91
2023-01-11T16:55:59.865Z,11.04
2023-01-11T16:58:28.452Z,11.19
2023-01-11T17:01:02.415Z,11.24
2023-01-11T17:03:31.446Z,11.26
2023-01-11T17:06:17.680Z,11.25
2023-01-11T17:08:46.563Z,11.19
2023-01-11T17:11:32.790Z,11.12
2023-01-11T17:14:18.147Z,10.98
2023-01-11T17:16:49.371Z,10.48
2023-01-11T17:19:18.219Z,10.51
2023-01-11T17:21:48.504Z,10.49
2023-01-11T17:24:15.906Z,10.42
2023-01-11T17:26:45.834Z,10.54
2023-01-11T17:29:18.261Z,10.42
2023-01-11T17:31:46.622Z,10.26
2023-01-11T17:34:19.581Z,10.51
2023-01-11T17:36:47.558Z,10.32
2023-01-11T17:39:19.959Z,10.20
2023-01-11T17:41:46.992Z,10.33
2023-01-11T17:44:17.920Z,10.13
2023-01-11T17:46:48.028Z,9.93
2023-01-11T17:49:22.139Z,9.59
2023-01-11T17:51:51.323Z,9.79
2023-01-11T17:54:19.892Z,9.85
2023-01-11T17:56:55.596Z,9.75
2023-01-11T17:59:23.737Z,10.06
2023-01-11T18:01:53.929Z,9.75
2023-01-11T18:04:22.935Z,10.04
2023-01-11T18:06:52.908Z,9.83
2023-01-11T18:09:23.145Z,10.15
2023-01-11T18:11:52.380Z,10.18
2023-01-11T18:14:24.122Z,9.94
2023-01-11T18:17:00.571Z,9.90
2023-01-11T18:19:38.629Z,9.77
2023-01-11T18:22:27.440Z,10.08
2023-01-11T18:24:55.018Z,9.73
2023-01-11T18:27:27.227Z,9.64
2023-01-11T18:29:56.055Z,9.88
2023-01-11T18:32:25.227Z,9.84
2023-01-11T18:34:54.031Z,9.66
2023-01-11T18:37:21.371Z,9.84
2023-01-11T18:39:49.457Z,9.76
2023-01-11T18:42:20.439Z,9.52
2023-01-11T18:44:47.855Z,9.55
2023-01-11T18:47:17.106Z,9.50
2023-01-11T18:49:45.464Z,9.62
2023-01-11T18:52:12.938Z,9.58
2023-01-11T18:54:40.349Z,9.82
2023-01-11T18:57:07.508Z,9.64
2023-01-11T18:59:36.396Z,9.72
2023-01-11T19:02:24.940Z,9.63
2023-01-11T19:04:58.515Z,9.56
2023-01-11T19:07:26.345Z,9.57
2023-01-11T19:09:53.416Z,9.59
2023-01-11T19:12:19.915Z,9.40
2023-01-11T19:14:46.606Z,9.57
2023-01-11T19:17:13.701Z,9.41
2023-01-11T19:19:46.132Z,9.24
2023-01-11T19:22:14.017Z,9.18
2023-01-11T19:24:40.547Z,9.26
2023-01-11T19:27:07.226Z,9.31
2023-01-11T19:29:36.349Z,9.22
2023-01-11T19:32:02.923Z,8.92
2023-01-11T19:34:29.481Z,9.05
2023-01-11T19:36:55.988Z,9.36
2023-01-11T19:39:23.978Z,9.44
2023-01-11T19:41:50.615Z,9.41
2023-01-11T19:44:17.195Z,9.52
2023-01-11T19:46:43.954Z,9.42
2023-01-11T19:49:10.754Z,9.28
2023-01-11T19:51:37.303Z,9.46
2023-01-11T19:54:04.096Z,9.32
2023-01-11T19:56:32.030Z,9.42
2023-01-11T19:58:58.577Z,9.53
2023-01-11T20:01:25.171Z,9.52
2023-01-11T20:03:52.040Z,9.61
2023-01-11T20:06:18.654Z,9.38
2023-01-11T20:08:48.028Z,9.44
2023-01-11T20:11:15.695Z,9.32
2023-01-11T20:13:43.693Z,9.44
2023-01-11T20:16:14.194Z,9.27
2023-01-11T20:18:40.739Z,9.28
2023-01-11T20:21:07.431Z,9.33
2023-01-11T20:23:38.815Z,9.34
2023-01-11T20:26:20.048Z,9.61
2023-01-11T20:28:52.066Z,9.64
2023-01-11T20:31:19.140Z,9.55
2023-01-11T20:33:45.734Z,9.62
2023-01-11T20:36:32.712Z,9.77
2023-01-11T20:38:59.337Z,9.62
2023-01-11T20:41:27.124Z,9.63
2023-01-11T20:43:54.954Z,9.66
2023-01-11T20:46:23.943Z,9.78
2023-01-11T20:48:50.512Z,9.72
2023-01-11T20:51:20.815Z,9.83
2023-01-11T20:53:47.492Z,9.90
2023-01-11T20:56:14.078Z,9.80
2023-01-11T20:58:41.061Z,9.73
2023-01-11T21:01:10.613Z,9.94
2023-01-11T21:03:37.152Z,10.20
2023-01-11T21:06:04.792Z,10.28
2023-01-11T21:08:44.572Z,10.10
2023-01-11T21:11:13.946Z,10.17
2023-01-11T21:13:40.800Z,10.20
2023-01-11T21:16:10.433Z,10.21
2023-01-11T21:18:40.769Z,10.19
2023-01-11T21:21:11.944Z,10.23
2023-01-11T21:23:38.512Z,10.23
2023-01-11T21:26:10.046Z,10.48
2023-01-11T21:28:38.469Z,10.13
2023-01-11T21:31:07.896Z,10.21
2023-01-11T21:33:37.507Z,10.34
2023-01-11T21:36:05.761Z,10.02
2023-01-11T21:38:33.598Z,10.26
2023-01-11T21:41:04.826Z,10.11
2023-01-11T21:43:31.730Z,10.43
2023-01-11T21:46:57.247Z,10.25
2023-01-11T21:49:29.713Z,10.24
2023-01-11T21:52:02.171Z,10.09
2023-01-11T21:54:46.299Z,10.34
2023-01-11T21:57:12.790Z,10.26
2023-01-11T21:59:39.322Z,10.30
2023-01-11T22:02:05.942Z,10.36
2023-01-11T22:04:35.318Z,10.31
2023-01-11T22:07:01.786Z,10.17
2023-01-11T22:09:28.733Z,10.11
2023-01-11T22:11:55.326Z,10.08
2023-01-11T22:14:21.881Z,9.96
2023-01-11T22:16:48.417Z,10.23
2023-01-11T22:19:15.580Z,10.16
2023-01-11T22:21:43.581Z,10.20
2023-01-11T22:24:11.141Z,10.41
2023-01-11T22:26:38.420Z,10.29
2023-01-11T22:29:06.407Z,9.96
2023-01-11T22:31:33.710Z,10.49
2023-01-11T22:34:00.423Z,10.49
2023-01-11T22:36:28.082Z,10.59
2023-01-11T22:38:58.028Z,10.42
2023-01-11T22:41:26.021Z,10.65
2023-01-11T22:43:53.663Z,10.45
2023-01-11T22:46:22.498Z,10.20
2023-01-11T22:48:50.930Z,10.33
2023-01-11T22:51:19.304Z,10.45
2023-01-11T22:53:48.044Z,10.27
2023-01-11T22:56:17.786Z,10.54
2023-01-11T22:58:44.623Z,10.40
2023-01-11T23:01:12.297Z,10.36
2023-01-11T23:03:39.578Z,10.27
2023-01-11T23:06:07.755Z,10.14
2023-01-11T23:08:37.488Z,10.57
2023-01-11T23:11:04.277Z,10.42
2023-01-11T23:13:32.449Z,10.48
2023-01-11T23:15:59.088Z,10.47
2023-01-11T23:18:25.618Z,10.23
2023-01-11T23:20:52.070Z,10.40
2023-01-11T23:23:19.626Z,10.47
2023-01-11T23:25:46.405Z,10.58
2023-01-11T23:28:12.870Z,10.40
2023-01-11T23:30:40.701Z,10.21
2023-01-11T23:33:07.468Z,10.36
2023-01-11T23:35:33.965Z,9.96
2023-01-11T23:38:00.787Z,10.28
2023-01-11T23:40:27.346Z,10.23
2023-01-11T23:42:53.947Z,10.20
2023-01-11T23:45:20.408Z,10.37
2023-01-11T23:47:49.089Z,10.32
2023-01-11T23:50:15.829Z,10.41
2023-01-11T23:52:42.525Z,9.92
2023-01-11T23:55:09.732Z,10.34
2023-01-11T23:57:36.196Z,9.97
